Time;durP1;ratioP1;P1;durP2;ratioP2;P2;SDS_P1;SDS_P2;PMS_P1;PMS_P2;Temp;Humidity;BMP_temperature;BMP_pressure;BME280_temperature;BME280_humidity;BME280_pressure;Samples;Min_cycle;Max_cycle;Signal;HPM_P1;HPM_P2
2023/09/14 00:01:26;;;;;;;0.50;0.50;;;;;;;21.75;79.93;99462.09;5073940;28;20041;-68
2023/09/14 00:03:55;;;;;;;0.82;0.82;;;;;;;21.72;80.45;99451.84;5073419;28;20098;-68
2023/09/14 00:06:26;;;;;;;1.58;0.82;;;;;;;21.72;80.66;99447.50;5073569;28;20056;-68
2023/09/14 00:08:55;;;;;;;1.45;1.17;;;;;;;21.65;80.99;99443.50;5073570;28;20047;-68
2023/09/14 00:11:24;;;;;;;2.50;1.05;;;;;;;21.62;81.58;99443.66;5073430;28;20060;-68
2023/09/14 00:13:53;;;;;;;1.35;1.25;;;;;;;21.55;81.75;99444.03;5073797;28;20037;-68
2023/09/14 00:16:22;;;;;;;1.00;0.90;;;;;;;21.52;81.96;99444.22;5073944;28;20463;-68
2023/09/14 00:18:51;;;;;;;;;;;;;;;21.52;82.08;99444.22;5073896;28;20518;-68
2023/09/14 00:21:21;;;;;;;0.47;0.47;;;;;;;21.49;82.25;99439.16;5073617;28;20352;-68
2023/09/14 00:23:51;;;;;;;0.60;0.60;;;;;;;21.51;82.45;99442.50;5073615;28;20045;-68
2023/09/14 00:26:19;;;;;;;2.25;1.80;;;;;;;21.42;82.69;99437.78;5074052;28;20435;-68
2023/09/14 00:28:49;;;;;;;;;;;;;;;21.38;83.20;99432.72;5074066;28;20388;-68
2023/09/14 00:31:17;;;;;;;0.88;0.82;;;;;;;21.33;83.27;99432.09;5076842;28;20335;-68
2023/09/14 00:33:46;;;;;;;1.45;0.95;;;;;;;21.17;83.79;99428.56;5076478;28;20064;-68
2023/09/14 00:36:15;;;;;;;0.80;0.70;;;;;;;21.05;84.68;99423.97;5077050;28;20049;-68
2023/09/14 00:38:44;;;;;;;0.70;0.67;;;;;;;20.99;85.16;99419.03;5077525;28;20289;-68
2023/09/14 00:41:14;;;;;;;1.23;0.75;;;;;;;20.97;85.59;99414.84;5077556;28;20044;-68
2023/09/14 00:43:44;;;;;;;0.80;0.80;;;;;;;20.97;85.91;99415.66;5076916;28;20045;-68
2023/09/14 00:46:13;;;;;;;1.30;1.20;;;;;;;20.97;86.23;99414.84;5077462;28;20514;-68
2023/09/14 00:48:42;;;;;;;1.35;0.70;;;;;;;21.01;85.97;99412.00;5077376;28;20115;-68
2023/09/14 00:51:11;;;;;;;2.38;1.20;;;;;;;20.95;85.66;99412.28;5076463;28;20161;-69
2023/09/14 00:53:40;;;;;;;1.70;1.38;;;;;;;20.86;86.10;99412.72;5076117;28;20060;-68
2023/09/14 00:56:11;;;;;;;1.10;1.02;;;;;;;20.82;86.03;99408.59;5075740;28;20382;-69
2023/09/14 00:58:41;;;;;;;2.40;2.17;;;;;;;20.74;86.16;99408.09;5076298;28;20468;-69
2023/09/14 01:01:14;;;;;;;7.03;1.70;;;;;;;20.73;86.33;99401.25;5077240;28;20059;-68
2023/09/14 01:03:43;;;;;;;1.30;1.20;;;;;;;20.75;86.26;99404.63;5077133;28;20040;-68
2023/09/14 01:06:12;;;;;;;1.30;1.20;;;;;;;20.73;86.43;99403.84;5077002;28;20048;-68
2023/09/14 01:08:41;;;;;;;1.25;1.15;;;;;;;20.65;86.38;99408.53;5077293;28;20044;-68
2023/09/14 01:11:12;;;;;;;2.55;1.42;;;;;;;20.63;86.39;99408.63;5076747;28;20114;-68
2023/09/14 01:13:56;;;;;;;0.88;0.80;;;;;;;20.73;86.51;99414.22;5075732;28;20044;-68
2023/09/14 01:16:32;;;;;;;2.00;0.95;;;;;;;20.75;86.30;99417.59;5075818;28;20139;-69
2023/09/14 01:19:11;;;;;;;1.20;1.02;;;;;;;20.63;86.29;99410.38;5076495;28;20044;-69
2023/09/14 01:21:59;;;;;;;1.13;1.02;;;;;;;20.65;86.49;99413.72;5076829;28;20048;-69
2023/09/14 01:24:47;;;;;;;1.88;1.63;;;;;;;20.57;86.33;99421.84;5075856;28;20131;-69
2023/09/14 01:27:18;;;;;;;4.38;1.35;;;;;;;20.55;86.63;99412.47;5075554;28;20048;-69
2023/09/14 01:29:47;;;;;;;0.50;0.50;;;;;;;20.55;86.89;99420.25;5075783;28;20048;-68
2023/09/14 01:32:16;;;;;;;1.50;1.20;;;;;;;20.60;86.80;99420.88;5075447;28;20040;-69
2023/09/14 01:34:46;;;;;;;0.85;0.85;;;;;;;20.62;86.49;99424.22;5076305;28;20522;-69
2023/09/14 01:37:16;;;;;;;0.50;0.50;;;;;;;20.62;86.36;99419.03;5073813;28;20064;-68
2023/09/14 01:39:47;;;;;;;0.70;0.70;;;;;;;20.62;86.74;99413.84;5075245;28;20400;-69
2023/09/14 01:42:18;;;;;;;0.75;0.70;;;;;;;20.60;86.76;99418.28;5074648;28;20076;-68
2023/09/14 01:44:48;;;;;;;0.77;0.77;;;;;;;20.54;86.48;99415.94;5075512;28;20447;-68
2023/09/14 01:47:17;;;;;;;0.73;0.73;;;;;;;20.50;86.92;99419.59;5075585;28;20467;-68
2023/09/14 01:49:46;;;;;;;0.55;0.55;;;;;;;20.52;86.97;99418.63;5074883;28;20057;-68
2023/09/14 01:52:15;;;;;;;1.80;0.95;;;;;;;20.42;87.53;99419.13;5074843;28;20400;-69
2023/09/14 01:54:44;;;;;;;0.60;0.60;;;;;;;20.41;87.53;99420.03;5073890;28;20044;-69
2023/09/14 01:57:12;;;;;;;1.33;1.13;;;;;;;20.36;87.93;99419.38;5075261;28;20069;-69
2023/09/14 01:59:43;;;;;;;0.85;0.85;;;;;;;20.31;87.92;99423.94;5074053;28;20040;-68
2023/09/14 02:02:12;;;;;;;1.30;1.20;;;;;;;20.30;88.47;99422.25;5073845;28;20051;-68
2023/09/14 02:04:41;;;;;;;1.43;1.33;;;;;;;20.31;88.51;99424.78;5073516;28;20465;-69
2023/09/14 02:07:10;;;;;;;;;;;;;;;20.39;88.71;99421.84;5074124;28;20261;-69
2023/09/14 02:09:39;;;;;;;2.55;1.00;;;;;;;20.35;88.86;99425.47;5107481;28;19928;-69
2023/09/14 02:12:08;;;;;;;1.50;1.40;;;;;;;20.32;88.90;99421.28;5073670;28;20044;-68
2023/09/14 02:14:37;;;;;;;1.30;0.82;;;;;;;20.35;88.93;99420.28;5073866;28;20040;-69
2023/09/14 02:17:07;;;;;;;4.85;1.25;;;;;;;20.31;88.95;99421.34;5075041;28;20052;-69
2023/09/14 02:19:37;;;;;;;0.47;0.47;;;;;;;20.30;89.16;99417.09;5074351;28;20049;-68
2023/09/14 02:22:06;;;;;;;1.30;1.10;;;;;;;20.30;89.34;99422.25;5073530;28;20127;-68
2023/09/14 02:24:34;;;;;;;7.03;0.90;;;;;;;20.28;89.18;99418.88;5073745;28;20131;-68
2023/09/14 02:27:04;;;;;;;0.47;0.47;;;;;;;20.29;89.45;99416.22;5074246;28;20365;-68
2023/09/14 02:29:33;;;;;;;1.48;0.60;;;;;;;20.30;89.49;99417.09;5074207;28;20048;-68
2023/09/14 02:32:02;;;;;;;4.30;1.33;;;;;;;20.30;89.37;99423.06;5073610;28;20041;-68
2023/09/14 02:34:32;;;;;;;0.77;0.77;;;;;;;20.27;89.60;99422.41;5073321;28;20052;-68
2023/09/14 02:37:02;;;;;;;1.98;0.93;;;;;;;20.26;89.76;99416.34;5023751;28;1423120;-68
2023/09/14 02:39:32;;;;;;;0.98;0.80;;;;;;;20.25;89.81;99424.22;5074926;28;20040;-69
2023/09/14 02:42:01;;;;;;;1.15;1.02;;;;;;;20.25;89.81;99417.25;5074985;28;20049;-68
2023/09/14 02:44:30;;;;;;;0.80;0.80;;;;;;;20.24;89.98;99417.34;5073765;28;20090;-68
2023/09/14 02:46:59;;;;;;;2.00;1.63;;;;;;;20.22;89.96;99420.00;5075152;28;20053;-69
2023/09/14 02:49:28;;;;;;;0.40;0.40;;;;;;;20.22;89.92;99409.63;5073931;28;20045;-69
2023/09/14 02:51:58;;;;;;;0.93;0.90;;;;;;;20.25;89.87;99421.63;5074187;28;20048;-69
2023/09/14 02:54:27;;;;;;;1.60;1.27;;;;;;;20.26;89.92;99410.31;5073753;28;20083;-68
2023/09/14 02:56:56;;;;;;;1.85;0.93;;;;;;;20.22;89.90;99419.13;5073775;28;20083;-68
2023/09/14 02:59:24;;;;;;;0.67;0.57;;;;;;;20.22;89.88;99413.94;5073796;28;20047;-69
2023/09/14 03:01:54;;;;;;;0.98;0.93;;;;;;;20.20;90.26;99414.03;5073933;28;20076;-68
2023/09/14 03:04:23;;;;;;;0.63;0.60;;;;;;;20.30;89.98;99417.91;5073758;28;20053;-69
2023/09/14 03:06:52;;;;;;;0.60;0.60;;;;;;;20.30;89.87;99414.50;5073592;28;20126;-68
2023/09/14 03:09:22;;;;;;;;;;;;;;;20.27;89.69;99414.63;5073977;28;20055;-68
2023/09/14 03:11:51;;;;;;;1.00;0.88;;;;;;;20.24;89.72;99422.53;5073482;28;19924;-69
2023/09/14 03:14:20;;;;;;;1.30;0.60;;;;;;;20.24;89.73;99422.53;5074333;28;20131;-68
2023/09/14 03:16:51;;;;;;;0.73;0.60;;;;;;;20.24;89.61;99427.69;5074292;28;20067;-68
2023/09/14 03:19:20;;;;;;;0.63;0.57;;;;;;;20.23;89.23;99420.84;5073373;28;20044;-68
2023/09/14 03:21:49;;;;;;;1.77;1.38;;;;;;;20.22;89.33;99429.50;5073262;28;20169;-68
2023/09/14 03:24:18;;;;;;;1.42;1.30;;;;;;;20.22;89.44;99429.50;5072975;28;20447;-68
2023/09/14 03:26:48;;;;;;;1.85;1.08;;;;;;;20.18;89.24;99433.13;5073499;28;20044;-68
2023/09/14 03:29:17;;;;;;;2.58;1.55;;;;;;;20.19;89.39;99440.00;5074426;28;20056;-68
2023/09/14 03:31:45;;;;;;;1.25;1.10;;;;;;;20.16;89.41;99435.78;5073057;28;20075;-68
2023/09/14 03:34:14;;;;;;;1.17;1.08;;;;;;;20.16;89.47;99440.13;5074274;28;20067;-68
2023/09/14 03:36:43;;;;;;;1.27;1.17;;;;;;;20.18;89.49;99438.31;5073572;28;20072;-69
2023/09/14 03:39:12;;;;;;;3.88;1.10;;;;;;;20.17;89.98;99436.63;5073041;28;20135;-68
2023/09/14 03:41:41;;;;;;;0.77;0.77;;;;;;;20.22;89.96;99445.94;5072884;28;20560;-68
2023/09/14 03:44:11;;;;;;;3.93;1.63;;;;;;;20.18;89.87;99443.50;5073879;28;20049;-68
2023/09/14 03:46:40;;;;;;;2.85;1.13;;;;;;;20.17;90.08;99439.22;5073870;28;20037;-68
2023/09/14 03:49:09;;;;;;;0.70;0.70;;;;;;;20.12;90.09;99443.75;5073212;28;20056;-69
2023/09/14 03:51:38;;;;;;;0.50;0.47;;;;;;;20.13;90.39;99445.44;5072993;28;20041;-69
2023/09/14 03:54:08;;;;;;;1.33;0.87;;;;;;;20.11;90.56;99447.28;5072824;28;20415;-68
2023/09/14 03:56:39;;;;;;;0.80;0.80;;;;;;;20.17;90.65;99449.59;5074135;28;20048;-69
2023/09/14 03:59:08;;;;;;;0.73;0.63;;;;;;;20.13;90.75;99446.28;5072796;28;20135;-69
2023/09/14 04:01:38;;;;;;;1.10;0.95;;;;;;;20.12;90.53;99452.38;5073515;28;20049;-68
2023/09/14 04:04:07;;;;;;;2.25;1.02;;;;;;;20.09;90.73;99457.69;5073812;28;20064;-68
2023/09/14 04:06:36;;;;;;;1.77;1.35;;;;;;;20.10;91.04;99467.16;5072402;28;20385;-69
2023/09/14 04:09:06;;;;;;;0.80;0.80;;;;;;;20.08;91.01;99454.25;5073854;28;20076;-69
2023/09/14 04:11:35;;;;;;;1.50;1.02;;;;;;;20.14;91.12;99460.06;5073432;28;20053;-69
2023/09/14 04:14:04;;;;;;;2.20;1.08;;;;;;;20.19;91.03;99465.91;5072608;28;20048;-69
2023/09/14 04:16:33;;;;;;;1.73;1.10;;;;;;;20.19;90.64;99460.72;5073765;28;20052;-69
2023/09/14 04:19:04;;;;;;;1.20;1.10;;;;;;;20.17;90.88;99467.72;5073491;28;20139;-69
2023/09/14 04:21:33;;;;;;;1.25;1.15;;;;;;;20.20;90.70;99471.03;5072810;28;20094;-69
2023/09/14 04:24:02;;;;;;;1.47;1.20;;;;;;;20.17;90.64;99472.91;5073376;28;20044;-69
2023/09/14 04:26:31;;;;;;;5.10;1.67;;;;;;;20.05;90.84;99467.34;5073983;28;20749;-69
2023/09/14 04:28:59;;;;;;;1.33;1.20;;;;;;;20.06;91.20;99476.78;5072495;28;20037;-69
2023/09/14 04:31:28;;;;;;;1.50;1.40;;;;;;;19.99;91.13;99480.56;5073658;28;20052;-69
2023/09/14 04:33:57;;;;;;;1.75;0.85;;;;;;;19.95;91.32;99485.94;5073343;28;20480;-69
2023/09/14 04:36:27;;;;;;;0.98;0.73;;;;;;;19.95;91.65;99484.19;5071812;28;20401;-69
2023/09/14 04:38:56;;;;;;;3.20;0.80;;;;;;;19.93;91.66;99483.41;5072454;28;20072;-69
2023/09/14 04:41:25;;;;;;;0.65;0.65;;;;;;;19.97;92.14;99482.38;5071974;28;20067;-69
2023/09/14 04:43:54;;;;;;;0.82;0.82;;;;;;;19.98;92.21;99480.63;5072685;28;20044;-70
2023/09/14 04:46:23;;;;;;;1.00;0.90;;;;;;;19.99;92.38;99480.56;5073507;28;20045;-69
2023/09/14 04:48:52;;;;;;;0.70;0.70;;;;;;;19.97;92.58;99482.38;5072609;28;20048;-69
2023/09/14 04:51:23;;;;;;;1.17;1.08;;;;;;;19.95;92.57;99489.38;5072279;28;20072;-69
2023/09/14 04:53:53;;;;;;;1.88;1.40;;;;;;;19.95;92.86;99486.78;5072482;28;20550;-69
2023/09/14 04:56:22;;;;;;;1.65;1.55;;;;;;;19.97;92.96;99484.97;5072516;28;20469;-69
2023/09/14 04:58:51;;;;;;;2.57;1.97;;;;;;;19.96;92.98;99491.03;5073040;28;20044;-69
2023/09/14 05:01:20;;;;;;;3.25;1.13;;;;;;;19.96;93.47;99485.84;5071955;28;20051;-70
2023/09/14 05:03:50;;;;;;;1.58;1.25;;;;;;;19.99;93.51;99484.88;5073332;28;20040;-69
2023/09/14 05:06:19;;;;;;;1.52;1.42;;;;;;;20.01;93.43;99489.09;5072154;28;20090;-69
2023/09/14 05:08:48;;;;;;;0.85;0.85;;;;;;;20.10;93.77;99484.44;5072368;28;20076;-69
2023/09/14 05:11:18;;;;;;;1.55;1.30;;;;;;;20.13;93.75;99479.97;5072087;28;20052;-69
2023/09/14 05:13:47;;;;;;;1.25;1.15;;;;;;;20.13;93.87;99474.78;5072096;28;20106;-69
2023/09/14 05:16:16;;;;;;;0.93;0.90;;;;;;;20.22;93.80;99481.31;5074198;28;20044;-69
2023/09/14 05:18:46;;;;;;;1.27;0.88;;;;;;;20.30;93.77;99480.13;5075900;28;20048;-69
2023/09/14 05:21:15;;;;;;;4.20;2.35;;;;;;;20.34;93.55;99475.66;5076746;28;20384;-70
2023/09/14 05:23:45;;;;;;;1.73;1.13;;;;;;;20.33;93.38;99480.00;5076433;28;20047;-69
2023/09/14 05:26:14;;;;;;;1.75;1.65;;;;;;;20.36;93.25;99486.78;5075546;28;20048;-69
2023/09/14 05:28:44;;;;;;;1.77;1.50;;;;;;;20.39;93.52;99484.91;5075224;28;20045;-69
2023/09/14 05:31:14;;;;;;;1.50;1.40;;;;;;;20.36;93.13;99489.38;5076377;28;20123;-69
2023/09/14 05:33:43;;;;;;;;;;;;;;;20.33;92.78;99494.69;5076720;28;20136;-69
2023/09/14 05:36:12;;;;;;;1.80;1.70;;;;;;;20.31;92.92;99486.16;5074996;28;19963;-69
2023/09/14 05:38:41;;;;;;;1.13;1.02;;;;;;;20.35;92.92;99485.09;5076193;28;20049;-69
2023/09/14 05:41:10;;;;;;;3.90;2.47;;;;;;;20.34;92.74;99486.88;5075231;28;20072;-69
2023/09/14 05:43:39;;;;;;;2.90;2.05;;;;;;;20.34;92.82;99486.88;5076368;28;20404;-69
2023/09/14 05:46:11;;;;;;;1.00;0.82;;;;;;;20.34;92.81;99497.25;5075341;28;20442;-69
2023/09/14 05:48:41;;;;;;;0.85;0.70;;;;;;;20.36;92.37;99498.00;5076408;28;20142;-69
2023/09/14 05:51:10;;;;;;;4.57;1.17;;;;;;;20.34;91.99;99499.84;5075085;28;20131;-69
2023/09/14 05:53:38;;;;;;;1.13;1.02;;;;;;;20.39;91.67;99503.06;5074823;28;20127;-69
2023/09/14 05:56:08;;;;;;;1.88;1.73;;;;;;;20.39;91.12;99499.63;5075050;28;20750;-69
2023/09/14 05:58:37;;;;;;;1.10;0.98;;;;;;;20.37;90.90;99501.44;5072670;28;20044;-68
2023/09/14 06:01:06;;;;;;;1.67;1.35;;;;;;;20.37;90.59;99501.44;5074822;28;20041;-68
2023/09/14 06:03:36;;;;;;;1.23;1.13;;;;;;;20.35;90.35;99508.44;5075400;28;20510;-68
2023/09/14 06:06:05;;;;;;;1.00;0.90;;;;;;;20.32;90.05;99511.19;5075051;28;20064;-69
2023/09/14 06:08:35;;;;;;;0.80;0.80;;;;;;;20.28;89.61;99512.19;5075064;28;20094;-70
2023/09/14 06:11:05;;;;;;;1.10;0.93;;;;;;;20.27;89.75;99519.16;5074900;28;20294;-67
2023/09/14 06:13:35;;;;;;;1.60;0.98;;;;;;;20.26;89.34;99524.38;5072333;28;20044;-69
2023/09/14 06:16:04;;;;;;;;;;;;;;;20.26;89.23;99524.38;5075975;28;20155;-69
2023/09/14 06:18:33;;;;;;;1.33;1.23;;;;;;;20.31;89.20;99532.81;5075322;28;20007;-71
2023/09/14 06:21:03;;;;;;;0.65;0.65;;;;;;;20.26;88.92;99538.19;5074173;28;20282;-68
2023/09/14 06:23:32;;;;;;;0.80;0.80;;;;;;;20.28;88.56;99540.72;5074531;28;20542;-68
2023/09/14 06:26:01;;;;;;;1.98;0.80;;;;;;;20.31;88.63;99538.00;5075272;28;20033;-70
2023/09/14 06:28:30;;;;;;;1.38;1.05;;;;;;;20.30;88.65;99541.50;5075501;28;20032;-69
2023/09/14 06:30:59;;;;;;;2.73;0.67;;;;;;;20.28;88.44;99541.56;5074323;28;20051;-68
2023/09/14 06:33:28;;;;;;;1.48;0.93;;;;;;;20.29;88.43;99545.00;5075236;28;20036;-69
2023/09/14 06:35:57;;;;;;;1.55;1.45;;;;;;;20.25;88.41;99549.44;5074771;28;20492;-68
2023/09/14 06:38:27;;;;;;;2.13;1.20;;;;;;;20.28;88.58;99543.28;5074894;28;20135;-69
2023/09/14 06:40:56;;;;;;;3.88;0.90;;;;;;;20.27;88.71;99557.19;5074358;28;20782;-69
2023/09/14 06:43:25;;;;;;;1.25;1.15;;;;;;;20.27;88.59;99547.66;5074756;28;20055;-68
2023/09/14 06:45:54;;;;;;;2.10;1.67;;;;;;;20.30;88.94;99549.28;5074758;28;20037;-68
2023/09/14 06:48:23;;;;;;;1.27;1.15;;;;;;;20.37;88.79;99555.91;5076169;28;20312;-68
2023/09/14 06:50:52;;;;;;;1.17;0.93;;;;;;;20.35;88.80;99560.28;5074470;28;20408;-68
2023/09/14 06:53:20;;;;;;;1.25;1.15;;;;;;;20.35;88.60;99555.94;5074713;28;20048;-68
2023/09/14 06:55:51;;;;;;;1.40;0.90;;;;;;;20.39;88.60;99561.84;5074516;28;20036;-68
2023/09/14 06:58:20;;;;;;;0.82;0.82;;;;;;;20.37;88.59;99563.66;5074552;28;20052;-69
2023/09/14 07:00:49;;;;;;;0.95;0.90;;;;;;;20.38;88.44;99565.34;5074727;28;20037;-68
2023/09/14 07:03:17;;;;;;;1.40;1.05;;;;;;;20.39;88.69;99573.06;5073210;28;20450;-68
2023/09/14 07:05:46;;;;;;;1.27;0.80;;;;;;;20.39;88.34;99575.66;5074697;28;20051;-68
2023/09/14 07:08:15;;;;;;;0.83;0.83;;;;;;;20.38;88.60;99575.72;5076501;28;20293;-68
2023/09/14 07:10:44;;;;;;;2.92;0.60;;;;;;;20.39;88.30;99580.00;5074307;28;20044;-67
2023/09/14 07:13:14;;;;;;;0.60;0.60;;;;;;;20.38;88.32;99586.06;5074240;28;20049;-67
2023/09/14 07:15:43;;;;;;;0.70;0.70;;;;;;;20.39;88.38;99587.78;5074506;28;20342;-67
2023/09/14 07:18:25;;;;;;;5.68;2.47;;;;;;;20.36;88.16;99587.91;5074327;28;20055;-71
2023/09/14 07:20:55;;;;;;;4.78;4.32;;;;;;;20.39;88.20;99592.97;5054575;28;20100;-70
2023/09/14 07:23:25;;;;;;;2.65;2.13;;;;;;;20.39;88.02;99592.97;5062512;28;20395;-70
2023/09/14 07:25:54;;;;;;;0.47;0.47;;;;;;;20.38;87.78;99596.44;5070079;28;20044;-69
2023/09/14 07:28:24;;;;;;;1.02;0.95;;;;;;;20.34;87.07;99602.69;5074009;28;20075;-69
2023/09/14 07:30:54;;;;;;;1.25;1.15;;;;;;;20.32;87.41;99607.09;5074344;28;20393;-69
2023/09/14 07:33:25;;;;;;;0.80;0.77;;;;;;;20.33;87.29;99606.16;5074303;28;20067;-68
2023/09/14 07:35:55;;;;;;;0.40;0.40;;;;;;;20.32;87.13;99612.28;5073086;28;20504;-69
2023/09/14 07:38:24;;;;;;;0.93;0.88;;;;;;;20.38;87.02;99612.00;5073434;28;20044;-69
2023/09/14 07:40:52;;;;;;;0.60;0.60;;;;;;;20.36;86.81;99611.22;5073894;28;20472;-69
2023/09/14 07:43:21;;;;;;;0.50;0.50;;;;;;;20.37;86.62;99620.72;5073627;28;20037;-69
2023/09/14 07:45:52;;;;;;;0.68;0.68;;;;;;;20.38;86.60;99622.38;5073120;28;20075;-70
2023/09/14 07:48:21;;;;;;;0.60;0.60;;;;;;;20.40;86.64;99616.22;5072043;28;20071;-68
2023/09/14 07:50:52;;;;;;;0.65;0.65;;;;;;;20.38;86.48;99617.19;5073534;28;20038;-69
2023/09/14 07:53:21;;;;;;;0.50;0.50;;;;;;;20.37;86.49;99621.53;5073647;28;20048;-69
2023/09/14 07:55:53;;;;;;;1.17;1.02;;;;;;;20.36;86.46;99619.00;5072813;28;20123;-69
2023/09/14 07:58:22;;;;;;;0.70;0.60;;;;;;;20.41;86.47;99627.44;5073666;28;20119;-70
2023/09/14 08:00:53;;;;;;;0.60;0.60;;;;;;;20.44;86.36;99627.31;5073516;28;20377;-69
2023/09/14 08:03:22;;;;;;;2.03;1.25;;;;;;;20.48;86.27;99623.69;5073851;28;20040;-68
2023/09/14 08:05:52;;;;;;;1.17;1.08;;;;;;;20.51;86.23;99626.16;5072588;28;20044;-70
2023/09/14 08:08:21;;;;;;;0.57;0.57;;;;;;;20.54;85.97;99631.19;5073739;28;20040;-69
2023/09/14 08:10:51;;;;;;;0.55;0.55;;;;;;;20.52;85.69;99630.41;5073736;28;20442;-69
2023/09/14 08:13:20;;;;;;;0.43;0.43;;;;;;;20.54;85.97;99629.44;5072653;28;20047;-70
2023/09/14 08:15:49;;;;;;;1.08;0.55;;;;;;;20.63;85.64;99634.28;5072776;28;20076;-70
2023/09/14 08:18:20;;;;;;;1.95;0.98;;;;;;;20.71;85.46;99641.72;5073430;28;20123;-70
2023/09/14 08:20:48;;;;;;;0.80;0.80;;;;;;;20.66;85.24;99643.66;5073386;28;20393;-71
2023/09/14 08:23:19;;;;;;;0.80;0.57;;;;;;;20.69;84.95;99648.72;5072282;28;20522;-69
2023/09/14 08:25:48;;;;;;;1.52;1.23;;;;;;;20.75;84.56;99651.06;5072892;28;20593;-70
2023/09/14 08:28:18;;;;;;;0.55;0.55;;;;;;;20.79;84.25;99652.59;5073292;28;20040;-69
2023/09/14 08:30:49;;;;;;;0.80;0.65;;;;;;;20.89;84.34;99651.31;5073434;28;20095;-68
2023/09/14 08:33:20;;;;;;;0.77;0.77;;;;;;;20.98;84.26;99656.09;5072690;28;20114;-69
2023/09/14 08:35:49;;;;;;;0.50;0.50;;;;;;;21.01;84.08;99655.97;5073094;28;20056;-70
2023/09/14 08:38:18;;;;;;;0.85;0.85;;;;;;;21.00;83.64;99659.47;5072309;28;20577;-68
2023/09/14 08:40:53;;;;;;;1.65;1.25;;;;;;;21.07;83.68;99671.31;5073086;28;20056;-68
2023/09/14 08:43:22;;;;;;;0.50;0.50;;;;;;;21.18;83.56;99656.13;5072752;28;20463;-70
2023/09/14 08:45:52;;;;;;;1.98;1.25;;;;;;;21.24;83.55;99665.38;5073080;28;20044;-69
2023/09/14 08:48:27;;;;;;;0.95;0.90;;;;;;;21.28;83.31;99665.16;5072932;28;20044;-68
2023/09/14 08:50:59;;;;;;;1.40;1.10;;;;;;;21.34;82.80;99664.91;5073918;28;20559;-68
2023/09/14 08:53:32;;;;;;;0.47;0.47;;;;;;;21.45;82.75;99664.41;5076022;28;20118;-69
2023/09/14 08:56:04;;;;;;;19.15;3.20;;;;;;;21.59;82.68;99664.63;5076248;28;20510;-69
2023/09/14 08:58:35;;;;;;;0.80;0.80;;;;;;;21.59;82.13;99669.00;5076847;28;20049;-67
2023/09/14 09:01:06;;;;;;;0.50;0.50;;;;;;;21.61;81.96;99667.16;5076781;28;20048;-69
2023/09/14 09:03:37;;;;;;;1.23;1.13;;;;;;;21.62;81.30;99668.84;5076212;28;20052;-70
2023/09/14 09:06:06;;;;;;;1.27;1.15;;;;;;;21.66;81.12;99675.59;5076639;28;20045;-69
2023/09/14 09:08:36;;;;;;;2.75;1.60;;;;;;;21.75;80.82;99675.16;5076599;28;20052;-69
2023/09/14 09:11:04;;;;;;;0.80;0.60;;;;;;;21.80;80.69;99678.38;5078182;28;20472;-69
2023/09/14 09:13:34;;;;;;;1.73;1.45;;;;;;;21.86;80.34;99671.16;5079553;28;20499;-70
2023/09/14 09:16:04;;;;;;;1.98;0.90;;;;;;;21.92;80.12;99677.84;5076119;28;20056;-69
2023/09/14 09:18:35;;;;;;;1.05;0.95;;;;;;;21.90;79.46;99674.47;5076881;28;20052;-70
2023/09/14 09:21:06;;;;;;;0.57;0.57;;;;;;;21.93;79.28;99669.16;5077632;28;20068;-69
2023/09/14 09:23:36;;;;;;;0.50;0.50;;;;;;;22.00;79.00;99670.53;5076788;28;20047;-69
2023/09/14 09:26:05;;;;;;;0.70;0.70;;;;;;;22.06;78.41;99671.97;5076364;28;20048;-69
2023/09/14 09:28:34;;;;;;;1.15;1.05;;;;;;;22.17;78.01;99673.16;5075423;28;20055;-69
2023/09/14 09:31:03;;;;;;;5.95;1.15;;;;;;;22.16;77.58;99684.50;5076138;28;20033;-68
2023/09/14 09:33:36;;;;;;;0.63;0.63;;;;;;;22.10;76.74;99676.97;5076190;28;20041;-70
2023/09/14 09:36:17;;;;;;;0.50;0.50;;;;;;;22.23;76.29;99678.06;5075963;28;20518;-69
2023/09/14 09:38:49;;;;;;;0.55;0.55;;;;;;;22.31;75.95;99681.16;5075534;28;20044;-69
2023/09/14 09:41:18;;;;;;;1.42;0.90;;;;;;;22.39;75.42;99689.41;5076128;28;20052;-70
2023/09/14 09:43:51;;;;;;;0.65;0.60;;;;;;;22.48;74.78;99683.75;5075894;28;20091;-70
2023/09/14 09:46:21;;;;;;;3.10;1.60;;;;;;;22.39;74.14;99689.41;5076359;28;20049;-70
2023/09/14 09:48:50;;;;;;;2.08;1.88;;;;;;;22.39;74.26;99686.81;5074866;28;20051;-69
2023/09/14 09:51:24;;;;;;;0.70;0.70;;;;;;;22.56;74.10;99691.19;5076453;28;20051;-67
2023/09/14 09:54:05;;;;;;;0.55;0.50;;;;;;;22.57;73.33;99685.94;5075761;28;20044;-71
2023/09/14 09:56:36;;;;;;;0.95;0.80;;;;;;;22.66;73.01;99684.66;5076435;28;20071;-70
2023/09/14 09:59:09;;;;;;;0.50;0.50;;;;;;;22.85;72.54;99693.22;5074811;28;20126;-70
2023/09/14 10:01:39;;;;;;;0.70;0.70;;;;;;;22.96;71.38;99690.06;5075428;28;20557;-69
2023/09/14 10:04:11;;;;;;;0.85;0.82;;;;;;;23.09;70.98;99696.31;5075963;28;20067;-71
2023/09/14 10:06:50;;;;;;;1.85;1.17;;;;;;;23.29;70.32;99703.97;5075491;28;20041;-71
2023/09/14 10:09:19;;;;;;;0.60;0.60;;;;;;;23.54;69.85;99703.56;5074083;28;20048;-71
2023/09/14 10:11:51;;;;;;;0.52;0.52;;;;;;;23.66;68.91;99697.69;5075411;28;20052;-71
2023/09/14 10:14:22;;;;;;;0.75;0.75;;;;;;;23.75;68.15;99702.41;5075541;28;20052;-71
2023/09/14 10:16:55;;;;;;;1.20;0.70;;;;;;;23.68;67.30;99691.44;5074997;28;20098;-65
2023/09/14 10:19:27;;;;;;;0.40;0.40;;;;;;;23.54;66.93;99703.56;5055378;28;20136;-69
2023/09/14 10:21:58;;;;;;;0.80;0.80;;;;;;;23.57;67.10;99703.38;5054123;28;20136;-69
2023/09/14 10:24:28;;;;;;;0.77;0.77;;;;;;;23.53;67.17;99707.91;5087559;28;20055;-70
2023/09/14 10:26:59;;;;;;;1.48;1.15;;;;;;;23.62;66.74;99712.63;5069688;28;20036;-71
2023/09/14 10:29:30;;;;;;;1.38;1.00;;;;;;;23.69;66.49;99707.91;5075089;28;20040;-70
2023/09/14 10:32:02;;;;;;;1.40;1.15;;;;;;;23.77;66.27;99706.59;5073689;28;20710;-71
2023/09/14 10:34:32;;;;;;;0.70;0.70;;;;;;;23.94;65.98;99714.34;5079758;28;20477;-68
2023/09/14 10:37:04;;;;;;;0.45;0.45;;;;;;;23.94;65.58;99714.34;5078293;28;20049;-71
2023/09/14 10:39:35;;;;;;;1.38;1.02;;;;;;;24.12;65.35;99715.13;5076373;28;20412;-72
2023/09/14 10:42:05;;;;;;;1.75;0.82;;;;;;;24.33;65.08;99716.53;5074683;28;20044;-71
2023/09/14 10:44:34;;;;;;;0.63;0.63;;;;;;;24.40;64.69;99717.03;5074695;28;20048;-71
2023/09/14 10:47:04;;;;;;;0.65;0.63;;;;;;;24.44;64.14;99722.00;5074960;28;20507;-67
2023/09/14 10:49:35;;;;;;;0.90;0.70;;;;;;;24.40;63.79;99717.03;5074990;28;20078;-71
2023/09/14 10:52:06;;;;;;;1.15;1.05;;;;;;;24.41;63.51;99724.78;5059049;28;20052;-69
2023/09/14 10:54:37;;;;;;;0.40;0.40;;;;;;;24.33;63.02;99719.13;5074630;28;20045;-67
2023/09/14 10:57:22;;;;;;;0.80;0.80;;;;;;;24.34;62.88;99727.81;5074518;28;20048;-69
2023/09/14 10:59:52;;;;;;;1.35;0.70;;;;;;;24.44;62.84;99724.59;5073885;28;20040;-71
2023/09/14 11:02:43;;;;;;;4.65;0.60;;;;;;;24.41;62.38;99726.53;5074759;28;20412;-68
2023/09/14 11:05:20;;;;;;;0.50;0.50;;;;;;;24.24;61.93;99732.69;5074266;28;20139;-70
2023/09/14 11:07:56;;;;;;;1.20;0.80;;;;;;;24.12;62.21;99742.97;5075435;28;20049;-70
2023/09/14 11:10:28;;;;;;;0.75;0.75;;;;;;;24.09;62.12;99732.72;5074676;28;20509;-68
2023/09/14 11:13:30;;;;;;;0.50;0.50;;;;;;;24.08;62.20;99737.09;5073975;28;20056;-69
2023/09/14 11:16:18;;;;;;;0.43;0.43;;;;;;;24.09;61.94;99738.75;5071653;28;20044;-70
2023/09/14 11:18:56;;;;;;;0.50;0.50;;;;;;;24.15;62.13;99730.59;5076279;28;20048;-69
2023/09/14 11:21:44;;;;;;;0.88;0.82;;;;;;;24.13;61.45;99739.44;5073338;28;20048;-70
2023/09/14 11:24:18;;;;;;;0.52;0.52;;;;;;;24.25;61.65;99736.16;5074029;28;20047;-69
2023/09/14 11:26:53;;;;;;;1.85;1.13;;;;;;;24.27;61.51;99735.16;5074063;28;20499;-67
2023/09/14 11:29:28;;;;;;;0.50;0.50;;;;;;;24.29;61.09;99735.03;5070069;28;20041;-68
2023/09/14 11:32:01;;;;;;;1.17;1.08;;;;;;;24.36;61.02;99731.16;5076819;28;20492;-68
2023/09/14 11:34:38;;;;;;;1.50;1.13;;;;;;;24.47;61.01;99734.88;5060423;28;20500;-67
2023/09/14 11:37:15;;;;;;;1.13;1.00;;;;;;;24.42;60.43;99741.28;5071832;28;20056;-67
2023/09/14 11:39:57;;;;;;;1.48;1.02;;;;;;;24.36;60.36;99736.38;5073031;28;20174;-66
2023/09/14 11:43:04;;;;;;;1.67;1.20;;;;;;;24.35;60.13;99737.31;5074339;28;20169;-66
2023/09/14 11:45:37;;;;;;;1.08;1.00;;;;;;;24.37;59.89;99738.06;5050091;28;20506;-69
2023/09/14 11:48:10;;;;;;;1.95;0.90;;;;;;;24.42;59.50;99741.28;5053725;28;20041;-67
2023/09/14 11:51:02;;;;;;;0.75;0.75;;;;;;;24.44;59.19;99740.25;5053926;28;20037;-67